Time;durP1;ratioP1;P1;durP2;ratioP2;P2;SDS_P1;SDS_P2;PMS_P1;PMS_P2;Temp;Humidity;BMP_temperature;BMP_pressure;BME280_temperature;BME280_humidity;BME280_pressure;Samples;Min_cycle;Max_cycle;Signal;HPM_P1;HPM_P2
2021/01/21 00:00:31;;;;;;;2.07;1.60;;;11.80;99.90;;;;;;4939421;29;20470;-64
2021/01/21 00:02:56;;;;;;;2.17;1.67;;;11.70;99.90;;;;;;4939266;29;20187;-65
2021/01/21 00:05:22;;;;;;;7.33;2.37;;;11.70;99.90;;;;;;4938859;29;20235;-64
2021/01/21 00:07:47;;;;;;;3.80;1.53;;;11.80;99.90;;;;;;4938996;29;20175;-65
2021/01/21 00:10:13;;;;;;;6.20;1.60;;;12.00;99.90;;;;;;4939004;29;20190;-65
2021/01/21 00:12:38;;;;;;;3.30;1.70;;;12.10;99.90;;;;;;4939233;29;20217;-65
2021/01/21 00:18:26;;;;;;;4.20;1.90;;;12.20;99.90;;;;;;4938988;29;20571;-66
2021/01/21 00:20:51;;;;;;;3.87;1.67;;;12.10;99.90;;;;;;4939131;29;20470;-66
2021/01/21 00:23:17;;;;;;;3.53;1.63;;;12.20;99.90;;;;;;4939123;29;20223;-66
2021/01/21 00:25:42;;;;;;;2.30;1.43;;;12.20;99.90;;;;;;4939144;29;20230;-66
2021/01/21 00:28:08;;;;;;;2.50;1.70;;;12.30;99.90;;;;;;4938776;29;20226;-66
2021/01/21 00:30:34;;;;;;;3.40;1.70;;;12.30;99.90;;;;;;4939031;29;20256;-66
2021/01/21 00:32:59;;;;;;;2.50;1.80;;;12.20;99.90;;;;;;4938798;29;20183;-65
2021/01/21 00:35:25;;;;;;;2.40;1.47;;;12.20;99.90;;;;;;4938928;29;20171;-64
2021/01/21 00:37:51;;;;;;;7.73;1.47;;;12.20;99.90;;;;;;4938945;29;20179;-65
2021/01/21 00:40:16;;;;;;;2.80;1.93;;;12.20;99.90;;;;;;4938428;29;20213;-65
2021/01/21 00:42:42;;;;;;;8.87;1.73;;;12.20;99.90;;;;;;4938575;29;20172;-65
2021/01/21 00:45:08;;;;;;;7.30;1.73;;;12.20;99.90;;;;;;4938830;29;20179;-64
2021/01/21 00:47:34;;;;;;;3.33;1.77;;;12.30;99.90;;;;;;4938192;29;20513;-64
2021/01/21 00:49:59;;;;;;;1.97;1.53;;;12.30;99.90;;;;;;4938727;29;20598;-65
2021/01/21 00:52:25;;;;;;;3.33;1.70;;;12.30;99.90;;;;;;4939152;29;20179;-65
2021/01/21 00:54:50;;;;;;;4.03;1.67;;;12.40;99.90;;;;;;4939150;29;20611;-66
2021/01/21 00:57:16;;;;;;;2.13;1.47;;;12.30;99.90;;;;;;4938560;29;20186;-65
2021/01/21 00:59:42;;;;;;;5.00;1.70;;;12.40;99.90;;;;;;4937725;29;20199;-64
2021/01/21 01:02:07;;;;;;;3.30;1.60;;;12.40;99.90;;;;;;4938259;29;20179;-63
2021/01/21 01:04:33;;;;;;;3.90;2.40;;;12.40;99.90;;;;;;4937948;29;20258;-63
2021/01/21 01:06:58;;;;;;;2.70;1.20;;;12.40;99.90;;;;;;4938057;29;20190;-63
2021/01/21 01:09:24;;;;;;;2.80;1.40;;;12.40;99.90;;;;;;4938626;29;20234;-65
2021/01/21 01:11:50;;;;;;;3.50;2.40;;;12.40;99.90;;;;;;4938300;29;20177;-64
2021/01/21 01:14:16;;;;;;;4.07;2.03;;;12.30;99.90;;;;;;4938027;29;20519;-64
2021/01/21 01:16:42;;;;;;;5.37;1.97;;;12.20;99.90;;;;;;4938170;29;20490;-64
2021/01/21 01:19:07;;;;;;;8.17;1.70;;;12.20;99.90;;;;;;4937737;29;20266;-65
2021/01/21 01:21:33;;;;;;;3.30;1.57;;;12.00;99.90;;;;;;4938102;29;20225;-64
2021/01/21 01:23:59;;;;;;;1.93;1.50;;;12.10;99.90;;;;;;4938040;29;20673;-64
2021/01/21 01:26:24;;;;;;;4.00;1.33;;;12.10;99.90;;;;;;4937730;29;20925;-64
2021/01/21 01:28:50;;;;;;;2.33;1.70;;;12.20;99.90;;;;;;4937672;29;20191;-64
2021/01/21 01:31:15;;;;;;;4.47;1.60;;;12.10;99.90;;;;;;4937892;29;20298;-64
2021/01/21 01:33:41;;;;;;;5.47;1.60;;;12.00;99.90;;;;;;4937968;29;20654;-63
2021/01/21 01:36:07;;;;;;;3.43;1.80;;;12.10;99.90;;;;;;4937859;29;20686;-63
2021/01/21 01:38:32;;;;;;;3.20;1.73;;;12.00;99.90;;;;;;4937613;29;20261;-64
2021/01/21 01:40:58;;;;;;;2.87;1.80;;;12.00;99.90;;;;;;4937707;29;20239;-66
2021/01/21 01:43:23;;;;;;;2.80;1.50;;;12.00;99.90;;;;;;4937716;29;20182;-65
2021/01/21 01:45:49;;;;;;;2.37;1.73;;;12.10;99.90;;;;;;4937392;29;20183;-65
2021/01/21 01:48:18;;;;;;;2.23;2.03;;;12.00;99.90;;;;;;4937599;29;20185;-65
2021/01/21 01:50:43;;;;;;;1.83;1.23;;;12.10;99.90;;;;;;4937266;29;20718;-65
2021/01/21 01:53:09;;;;;;;2.37;1.40;;;12.10;99.90;;;;;;4937524;29;20511;-65
2021/01/21 01:55:35;;;;;;;5.00;1.50;;;12.10;99.90;;;;;;4937207;29;20183;-65
2021/01/21 01:58:02;;;;;;;2.83;1.50;;;12.10;99.90;;;;;;4937502;29;20179;-65
2021/01/21 02:00:28;;;;;;;4.90;2.27;;;12.00;99.90;;;;;;4937319;29;20215;-65
2021/01/21 02:02:53;;;;;;;4.47;1.73;;;12.00;99.90;;;;;;4937037;29;20842;-65
2021/01/21 02:05:20;;;;;;;2.17;1.10;;;11.90;99.90;;;;;;4936884;29;20227;-65
2021/01/21 02:07:47;;;;;;;4.13;1.80;;;12.00;99.90;;;;;;4937030;29;20179;-65
2021/01/21 02:10:14;;;;;;;2.33;1.37;;;11.90;99.90;;;;;;4936709;29;20435;-65
2021/01/21 02:13:04;;;;;;;2.70;1.50;;;11.90;99.90;;;;;;4937031;29;20431;-65
2021/01/21 02:16:12;;;;;;;3.73;1.30;;;12.10;99.90;;;;;;4937219;29;20568;-65
2021/01/21 02:19:12;;;;;;;3.77;1.40;;;12.10;99.90;;;;;;4937700;29;20760;-65
2021/01/21 02:21:43;;;;;;;1.63;1.27;;;12.10;99.90;;;;;;4937095;29;20431;-65
2021/01/21 02:24:34;;;;;;;2.90;1.77;;;12.00;99.90;;;;;;4937000;29;20439;-65
2021/01/21 02:27:05;;;;;;;2.70;1.30;;;12.10;99.90;;;;;;4936639;29;20423;-65
2021/01/21 02:33:14;;;;;;;2.77;2.10;;;12.10;99.90;;;;;;4936683;29;20775;-65
2021/01/21 02:35:44;;;;;;;3.60;1.43;;;12.00;99.90;;;;;;4936548;29;20455;-65
2021/01/21 02:38:11;;;;;;;3.93;1.50;;;12.10;99.90;;;;;;4936491;29;20431;-64
2021/01/21 02:40:40;;;;;;;2.43;1.33;;;12.10;99.90;;;;;;4936692;29;20471;-64
2021/01/21 02:43:10;;;;;;;2.60;1.60;;;12.10;99.90;;;;;;4936528;29;20423;-64
2021/01/21 02:45:35;;;;;;;3.80;1.30;;;12.20;99.90;;;;;;4936691;29;20427;-64
2021/01/21 02:48:02;;;;;;;4.10;1.73;;;12.20;99.90;;;;;;4936723;29;20788;-64
2021/01/21 02:50:27;;;;;;;2.20;1.30;;;12.20;99.90;;;;;;4936609;29;20538;-64
2021/01/21 02:53:01;;;;;;;5.20;1.73;;;12.10;99.90;;;;;;4936628;29;20459;-64
2021/01/21 02:55:32;;;;;;;1.90;1.20;;;12.10;99.90;;;;;;4936324;29;20171;-65
2021/01/21 02:58:03;;;;;;;1.20;1.10;;;12.00;99.90;;;;;;4936639;29;20419;-64
2021/01/21 03:00:31;;;;;;;2.67;1.60;;;12.20;99.90;;;;;;4936529;29;21005;-64
2021/01/21 03:03:03;;;;;;;2.77;1.50;;;12.10;99.90;;;;;;4936246;29;20506;-65
2021/01/21 03:05:30;;;;;;;2.60;1.30;;;12.20;99.90;;;;;;4936123;29;20482;-64
2021/01/21 03:07:57;;;;;;;1.37;1.20;;;12.20;99.90;;;;;;4936180;29;20957;-64
2021/01/21 03:10:22;;;;;;;4.23;2.03;;;12.30;99.90;;;;;;4936445;29;20461;-64
2021/01/21 03:12:53;;;;;;;1.63;1.27;;;12.30;99.90;;;;;;4936474;29;20907;-63
2021/01/21 03:15:19;;;;;;;2.70;1.30;;;12.40;99.90;;;;;;4936400;29;20191;-63
2021/01/21 03:17:45;;;;;;;4.00;1.40;;;12.30;99.90;;;;;;4936687;29;20450;-64
2021/01/21 03:20:11;;;;;;;1.60;1.50;;;12.40;99.90;;;;;;4936283;29;20478;-64
2021/01/21 03:22:36;;;;;;;2.40;1.23;;;12.30;99.90;;;;;;4938258;29;20622;-64
2021/01/21 03:25:03;;;;;;;2.80;1.47;;;12.40;99.90;;;;;;4940214;29;20535;-64
2021/01/21 03:27:28;;;;;;;4.50;1.57;;;12.40;99.90;;;;;;4940239;29;20179;-64
2021/01/21 03:29:54;;;;;;;3.20;1.40;;;12.40;99.90;;;;;;4939909;29;20771;-64
2021/01/21 03:32:19;;;;;;;4.63;1.40;;;12.50;99.90;;;;;;4940097;29;20531;-64
2021/01/21 03:34:46;;;;;;;1.87;1.30;;;12.50;99.90;;;;;;4940092;29;20584;-64
2021/01/21 03:37:11;;;;;;;4.57;1.53;;;12.40;99.90;;;;;;4939732;29;20231;-64
2021/01/21 03:39:37;;;;;;;1.53;1.43;;;12.50;99.90;;;;;;4939897;29;20475;-64
2021/01/21 03:42:03;;;;;;;1.93;1.30;;;12.50;99.90;;;;;;4939658;29;20206;-64
2021/01/21 03:44:28;;;;;;;4.93;1.17;;;12.40;99.90;;;;;;4939888;29;20206;-64
2021/01/21 03:46:54;;;;;;;1.93;1.60;;;12.40;99.90;;;;;;4939866;29;20206;-64
2021/01/21 03:49:19;;;;;;;1.73;1.13;;;12.40;99.90;;;;;;4939874;29;20175;-65
2021/01/21 03:51:45;;;;;;;1.60;1.33;;;12.50;99.90;;;;;;4939755;29;20361;-65
2021/01/21 03:54:10;;;;;;;3.17;1.37;;;12.50;99.90;;;;;;4939708;29;20182;-65
2021/01/21 03:56:36;;;;;;;3.83;1.90;;;12.50;99.90;;;;;;4939640;29;20182;-65
2021/01/21 03:59:01;;;;;;;2.20;1.60;;;12.50;99.90;;;;;;4939360;29;20265;-65
2021/01/21 04:01:27;;;;;;;2.60;1.60;;;12.50;99.90;;;;;;4939425;29;20700;-65
2021/01/21 04:03:53;;;;;;;4.40;1.33;;;12.50;99.90;;;;;;4939330;29;20266;-65
2021/01/21 04:06:18;;;;;;;2.30;1.50;;;12.50;99.90;;;;;;4939258;29;20635;-65
2021/01/21 04:08:44;;;;;;;2.60;1.67;;;12.60;99.90;;;;;;4939166;29;20175;-65
2021/01/21 04:11:09;;;;;;;2.53;1.30;;;12.60;99.90;;;;;;4939916;29;20186;-65
2021/01/21 04:13:35;;;;;;;1.80;1.30;;;12.60;99.90;;;;;;4939371;29;20239;-65
2021/01/21 04:16:00;;;;;;;2.30;1.30;;;12.50;99.90;;;;;;4939337;29;20223;-65
2021/01/21 04:18:26;;;;;;;4.47;1.33;;;12.60;99.90;;;;;;4938483;29;20456;-65
2021/01/21 04:20:51;;;;;;;1.87;1.07;;;12.50;99.90;;;;;;4938841;29;20478;-65
2021/01/21 04:23:17;;;;;;;2.10;1.50;;;12.60;99.90;;;;;;4938854;29;20179;-65
2021/01/21 04:25:43;;;;;;;2.37;1.13;;;12.70;99.90;;;;;;4939162;29;20270;-65
2021/01/21 04:28:08;;;;;;;2.13;1.23;;;12.70;99.90;;;;;;4939053;29;20175;-65
2021/01/21 04:30:34;;;;;;;1.97;1.30;;;12.60;99.90;;;;;;4939059;29;20186;-65
2021/01/21 04:32:59;;;;;;;2.40;1.23;;;12.60;99.90;;;;;;4938495;29;20226;-65
2021/01/21 04:35:25;;;;;;;2.33;1.30;;;12.70;99.90;;;;;;4938152;29;20179;-65
2021/01/21 04:37:51;;;;;;;4.10;1.50;;;12.70;99.90;;;;;;4938883;29;20277;-65
2021/01/21 04:40:16;;;;;;;2.50;1.23;;;12.70;99.90;;;;;;4938494;29;20206;-65
2021/01/21 04:42:42;;;;;;;1.27;1.03;;;12.70;99.90;;;;;;4938790;29;20526;-64
2021/01/21 04:45:08;;;;;;;2.60;1.13;;;12.80;99.90;;;;;;4938794;29;20171;-64
2021/01/21 04:47:35;;;;;;;2.30;1.70;;;12.80;99.90;;;;;;4938555;29;20183;-64
2021/01/21 04:50:02;;;;;;;1.80;0.90;;;12.90;99.90;;;;;;4938706;29;20563;-64
2021/01/21 04:52:33;;;;;;;2.13;1.10;;;12.90;99.90;;;;;;4938283;29;20525;-65
2021/01/21 04:55:14;;;;;;;5.33;1.30;;;12.80;99.90;;;;;;4938334;29;20415;-65
2021/01/21 04:57:45;;;;;;;2.17;1.07;;;12.90;99.90;;;;;;4938620;29;20422;-65
2021/01/21 05:00:11;;;;;;;3.53;1.23;;;12.80;99.90;;;;;;4938422;29;20482;-65
2021/01/21 05:02:38;;;;;;;1.47;1.00;;;12.70;99.90;;;;;;4939183;29;20423;-64
2021/01/21 05:05:09;;;;;;;1.60;1.23;;;12.80;99.90;;;;;;4938021;29;20476;-63
2021/01/21 05:07:36;;;;;;;3.10;1.10;;;12.80;99.90;;;;;;4938394;29;20415;-67
2021/01/21 05:10:02;;;;;;;3.40;1.20;;;12.80;99.90;;;;;;4938071;29;20438;-66
2021/01/21 05:12:28;;;;;;;1.20;0.97;;;12.80;99.90;;;;;;4938314;29;20778;-66
2021/01/21 05:14:54;;;;;;;1.60;0.80;;;12.80;99.90;;;;;;4938259;29;20458;-65
2021/01/21 05:17:19;;;;;;;2.90;1.37;;;12.90;99.90;;;;;;4938292;29;20179;-65
2021/01/21 05:19:46;;;;;;;4.60;1.47;;;12.90;99.90;;;;;;4938138;29;20238;-65
2021/01/21 05:22:14;;;;;;;3.70;1.07;;;12.90;99.90;;;;;;4938080;29;20183;-65
2021/01/21 06:32:37;;;;;;;1.50;1.00;;;9.00;99.90;;;;;;5086253;23;20526;-68
2021/01/21 06:35:05;;;;;;;2.37;0.67;;;8.90;99.90;;;;;;4974697;28;20443;-67
2021/01/21 06:37:37;;;;;;;1.67;0.80;;;8.70;99.90;;;;;;4974568;28;20465;-67
2021/01/21 06:40:09;;;;;;;2.55;1.10;;;8.50;99.90;;;;;;4974190;28;20477;-66
2021/01/21 06:42:41;;;;;;;2.70;0.97;;;8.50;99.90;;;;;;4974641;28;20232;-66
2021/01/21 06:45:07;;;;;;;1.70;0.87;;;8.40;99.90;;;;;;4973278;28;20798;-67
2021/01/21 06:47:35;;;;;;;5.23;0.80;;;8.30;99.90;;;;;;4974362;28;20428;-66
2021/01/21 06:50:04;;;;;;;2.70;1.43;;;8.40;99.90;;;;;;4968574;28;20466;-71
2021/01/21 06:52:32;;;;;;;1.63;0.90;;;8.30;99.90;;;;;;4955081;28;20434;-63
2021/01/21 06:55:00;;;;;;;2.30;1.00;;;8.40;99.90;;;;;;4958396;28;20437;-64
2021/01/21 07:00:48;;;;;;;2.10;0.90;;;8.30;99.90;;;;;;4981095;28;20480;-68
2021/01/21 07:03:30;;;;;;;3.90;1.10;;;8.30;99.90;;;;;;4974148;28;20419;-68
2021/01/21 07:06:02;;;;;;;1.30;0.90;;;8.30;99.90;;;;;;4975446;28;20177;-68
2021/01/21 07:08:28;;;;;;;4.03;1.00;;;8.40;99.90;;;;;;4974904;28;20452;-68
2021/01/21 07:10:59;;;;;;;2.20;1.07;;;8.40;99.90;;;;;;4974843;28;20433;-69
2021/01/21 07:13:28;;;;;;;5.13;1.10;;;8.40;99.90;;;;;;4974933;28;20436;-73
2021/01/21 07:16:04;;;;;;;1.20;0.80;;;8.40;99.90;;;;;;4974854;28;20429;-67
2021/01/21 07:18:37;;;;;;;2.93;0.80;;;8.40;99.90;;;;;;4974745;28;20488;-69
2021/01/21 07:21:18;;;;;;;2.20;0.83;;;8.30;99.90;;;;;;4974660;28;20472;-69
2021/01/21 07:23:46;;;;;;;2.10;1.57;;;8.20;99.90;;;;;;4974527;28;20424;-69
2021/01/21 07:26:29;;;;;;;7.43;1.30;;;8.10;99.90;;;;;;4974373;28;20952;-68
2021/01/21 07:29:12;;;;;;;3.30;1.20;;;8.10;99.90;;;;;;4974721;28;20424;-68
2021/01/21 07:31:56;;;;;;;1.93;1.00;;;8.10;99.90;;;;;;4974657;28;20788;-69
2021/01/21 07:34:45;;;;;;;5.50;1.23;;;8.10;99.90;;;;;;4974647;28;20778;-70
2021/01/21 07:37:24;;;;;;;1.57;0.90;;;8.00;99.90;;;;;;4974383;28;20428;-68
2021/01/21 07:43:12;;;;;;;2.63;1.40;;;8.00;99.90;;;;;;4974303;28;20823;-71
2021/01/21 07:45:44;;;;;;;4.00;1.17;;;8.00;99.90;;;;;;4974266;28;20464;-71
2021/01/21 07:48:27;;;;;;;2.70;1.03;;;7.90;99.90;;;;;;4974627;28;20815;-71
2021/01/21 07:50:52;;;;;;;5.43;1.63;;;7.90;99.90;;;;;;4974542;28;20414;-73
2021/01/21 07:53:21;;;;;;;4.83;1.67;;;8.00;99.90;;;;;;4974242;28;20421;-72
2021/01/21 07:55:48;;;;;;;9.53;1.77;;;7.90;99.90;;;;;;4974260;28;20681;-72
2021/01/21 07:58:21;;;;;;;6.73;1.77;;;8.00;99.90;;;;;;4974571;28;20830;-73
2021/01/21 08:04:09;;;;;;;3.47;1.30;;;7.90;99.90;;;;;;4974023;28;20445;-71
2021/01/21 08:06:34;;;;;;;5.57;1.30;;;7.90;99.90;;;;;;4974238;28;20777;-71
2021/01/21 08:09:11;;;;;;;8.90;1.87;;;8.00;99.90;;;;;;4973663;28;20652;-70
2021/01/21 08:11:37;;;;;;;5.13;1.70;;;8.10;99.90;;;;;;4977912;28;20160;-71
2021/01/21 08:14:03;;;;;;;7.15;1.63;;;8.00;99.90;;;;;;4977236;28;20422;-68
2021/01/21 08:16:29;;;;;;;4.00;1.60;;;8.10;99.90;;;;;;4977818;28;20668;-68
2021/01/21 08:19:02;;;;;;;3.63;1.27;;;8.00;99.90;;;;;;4977695;28;20260;-68
2021/01/21 08:24:06;;;;;;;3.60;1.47;;;7.90;99.90;;;;;;4596568;23;20546;-76
2021/01/21 08:26:33;;;;;;;2.60;1.10;;;7.90;99.90;;;;;;4995523;28;20448;-77
2021/01/21 08:28:59;;;;;;;4.30;1.60;;;8.00;99.90;;;;;;4995546;28;20444;-73
2021/01/21 08:31:39;;;;;;;15.07;2.17;;;8.10;99.90;;;;;;4995595;28;20471;-76
2021/01/21 08:34:07;;;;;;;5.10;2.47;;;8.00;99.90;;;;;;4993932;28;20994;-74
2021/01/21 08:36:33;;;;;;;4.87;2.13;;;8.00;99.90;;;;;;4987889;28;20872;-74
2021/01/21 08:39:00;;;;;;;2.50;1.70;;;8.00;99.90;;;;;;4995390;28;20436;-73
2021/01/21 08:41:26;;;;;;;3.47;1.33;;;8.00;99.90;;;;;;4995244;28;20515;-73
2021/01/21 08:43:58;;;;;;;5.10;2.67;;;8.00;99.90;;;;;;4994834;28;20460;-74
2021/01/21 08:46:24;;;;;;;3.00;1.30;;;8.10;99.90;;;;;;4975718;28;20476;-73
2021/01/21 08:48:51;;;;;;;6.10;1.63;;;8.00;99.90;;;;;;4975577;28;20432;-73
2021/01/21 08:51:41;;;;;;;5.23;1.83;;;8.00;99.90;;;;;;4975828;28;20433;-73
2021/01/21 08:54:25;;;;;;;2.30;1.23;;;8.00;99.90;;;;;;4975923;28;20429;-74
2021/01/21 08:57:10;;;;;;;2.93;1.37;;;8.00;99.90;;;;;;4975538;28;20857;-72
2021/01/21 08:59:36;;;;;;;4.50;1.13;;;8.00;99.90;;;;;;4975576;28;20465;-73
2021/01/21 09:02:04;;;;;;;5.60;1.50;;;7.90;99.90;;;;;;4975705;28;20441;-72
2021/01/21 09:04:35;;;;;;;3.70;1.77;;;8.10;99.90;;;;;;4975383;28;20512;-73
2021/01/21 09:07:02;;;;;;;5.50;1.57;;;8.00;99.90;;;;;;4975678;28;20437;-72
2021/01/21 09:09:32;;;;;;;4.57;1.70;;;8.10;99.90;;;;;;4975454;28;20429;-74
2021/01/21 09:12:17;;;;;;;3.93;2.00;;;8.30;99.90;;;;;;4975423;28;20437;-73
2021/01/21 09:14:43;;;;;;;9.43;2.00;;;8.30;99.90;;;;;;4975310;28;20504;-75
2021/01/21 09:17:14;;;;;;;5.97;1.70;;;8.40;99.90;;;;;;4975306;28;20417;-77
2021/01/21 09:23:12;;;;;;;8.30;1.77;;;8.60;99.90;;;;;;5002397;28;20775;-74
2021/01/21 09:29:00;;;;;;;7.20;2.13;;;8.70;99.90;;;;;;4995598;28;20415;-70
2021/01/21 09:31:30;;;;;;;9.03;1.90;;;8.80;99.90;;;;;;4995825;28;20511;-77
2021/01/21 09:37:18;;;;;;;5.13;1.70;;;8.70;99.90;;;;;;4995556;28;20408;-81
2021/01/21 09:39:44;;;;;;;11.90;3.60;;;8.80;99.90;;;;;;4995583;28;20525;-83
2021/01/21 09:42:09;;;;;;;4.23;1.97;;;8.80;99.90;;;;;;4995647;28;20432;-81
2021/01/21 09:44:35;;;;;;;8.70;2.40;;;8.80;99.90;;;;;;4995583;28;20169;-84
2021/01/21 09:47:01;;;;;;;3.83;1.20;;;8.80;99.90;;;;;;4995398;28;20608;-84
2021/01/21 09:49:26;;;;;;;6.70;1.27;;;8.90;99.90;;;;;;4995437;28;20201;-84
2021/01/21 09:51:51;;;;;;;7.33;2.57;;;9.00;99.90;;;;;;4995147;28;20173;-83
2021/01/21 09:54:17;;;;;;;4.00;1.73;;;9.00;99.90;;;;;;4995785;28;20172;-82
2021/01/21 09:56:42;;;;;;;11.47;2.43;;;9.20;99.90;;;;;;4995104;28;20231;-70
2021/01/21 10:02:30;;;;;;;4.80;2.03;;;9.10;99.90;;;;;;4994928;28;20200;-75
2021/01/21 10:04:55;;;;;;;10.83;1.67;;;9.10;99.90;;;;;;4994920;28;20429;-71
2021/01/21 10:07:21;;;;;;;8.20;2.40;;;9.10;99.90;;;;;;4995062;28;20184;-72
2021/01/21 10:09:46;;;;;;;3.77;2.20;;;9.20;99.90;;;;;;4995015;28;20579;-71
2021/01/21 10:12:12;;;;;;;13.20;1.80;;;9.10;99.90;;;;;;4994704;28;20173;-72
2021/01/21 10:14:38;;;;;;;13.37;2.50;;;9.20;99.90;;;;;;4994670;28;20173;-70
2021/01/21 10:17:07;;;;;;;14.13;3.50;;;9.20;99.90;;;;;;4994929;28;20180;-69
2021/01/21 10:19:33;;;;;;;4.33;2.03;;;9.30;99.90;;;;;;4994146;28;20236;-70
2021/01/21 10:22:00;;;;;;;4.70;1.57;;;9.50;99.90;;;;;;4994757;28;20475;-71
2021/01/21 10:27:47;;;;;;;7.93;1.90;;;9.40;99.90;;;;;;4994541;28;20407;-71
2021/01/21 10:30:13;;;;;;;5.93;1.63;;;9.60;99.90;;;;;;4994270;28;20432;-71
2021/01/21 10:32:39;;;;;;;7.20;1.90;;;9.70;99.90;;;;;;4992857;28;20516;-71
2021/01/21 10:35:05;;;;;;;4.27;1.40;;;9.80;99.90;;;;;;4994563;28;20427;-70
2021/01/21 10:37:30;;;;;;;7.60;1.67;;;9.80;99.90;;;;;;4994399;28;20271;-69
2021/01/21 10:39:56;;;;;;;7.93;1.77;;;10.00;99.90;;;;;;4994090;28;21050;-70
2021/01/21 10:42:22;;;;;;;7.33;1.43;;;9.90;99.90;;;;;;4994217;28;20173;-71
2021/01/21 10:44:47;;;;;;;4.90;1.83;;;9.80;99.90;;;;;;4994380;28;20312;-71
2021/01/21 10:47:12;;;;;;;7.60;1.73;;;9.90;99.90;;;;;;4994405;28;20214;-70
2021/01/21 10:49:38;;;;;;;5.23;1.60;;;9.80;99.90;;;;;;4994365;28;20173;-70
2021/01/21 10:52:04;;;;;;;4.77;1.80;;;9.90;99.90;;;;;;4994287;28;20205;-70
2021/01/21 10:54:29;;;;;;;5.00;1.60;;;9.80;99.90;;;;;;4994358;28;20431;-72
2021/01/21 10:56:55;;;;;;;5.57;1.43;;;9.80;99.90;;;;;;4994309;28;20177;-68
2021/01/21 10:59:21;;;;;;;3.80;1.70;;;9.70;99.90;;;;;;4994237;28;20251;-70
2021/01/21 11:01:47;;;;;;;2.43;1.37;;;9.80;99.90;;;;;;4993946;28;20920;-71
2021/01/21 11:04:13;;;;;;;11.03;2.10;;;9.90;99.90;;;;;;4994052;28;20177;-71
2021/01/21 11:06:39;;;;;;;5.87;1.93;;;9.90;99.90;;;;;;4994155;28;20243;-72
2021/01/21 11:09:05;;;;;;;10.10;1.93;;;9.90;99.90;;;;;;4994027;28;20467;-70
2021/01/21 11:11:30;;;;;;;3.57;1.80;;;9.70;99.90;;;;;;4994140;28;20489;-70
2021/01/21 11:13:56;;;;;;;3.90;1.20;;;9.70;99.90;;;;;;4993839;28;20640;-69
2021/01/21 11:16:21;;;;;;;7.77;1.63;;;9.70;99.90;;;;;;4994240;28;20205;-69
2021/01/21 11:18:48;;;;;;;6.50;1.90;;;9.60;99.90;;;;;;4993777;28;20233;-72
2021/01/21 11:24:48;;;;;;;8.10;1.97;;;9.70;99.90;;;;;;4993865;28;20785;-72
2021/01/21 11:27:14;;;;;;;6.33;2.10;;;9.80;99.90;;;;;;4994083;28;20519;-72
2021/01/21 11:29:39;;;;;;;1.40;0.97;;;9.90;99.90;;;;;;4993904;28;20179;-73
2021/01/21 11:32:05;;;;;;;5.50;1.33;;;9.90;99.90;;;;;;4993959;28;20197;-72
2021/01/21 11:37:53;;;;;;;4.77;2.03;;;10.00;99.90;;;;;;4993977;28;20251;-76
2021/01/21 11:43:40;;;;;;;4.53;1.20;;;10.20;99.90;;;;;;4995699;28;20837;-71
2021/01/21 11:46:06;;;;;;;4.23;1.47;;;10.10;99.90;;;;;;4996078;28;20555;-72
2021/01/21 11:51:54;;;;;;;8.80;1.80;;;9.70;99.90;;;;;;4997216;28;20687;-72
2021/01/21 11:54:20;;;;;;;7.17;1.60;;;9.70;99.90;;;;;;4996961;28;20428;-71
2021/01/21 11:56:45;;;;;;;2.70;1.13;;;9.70;99.90;;;;;;4997827;28;20431;-71
2021/01/21 11:59:11;;;;;;;4.07;1.50;;;9.80;99.90;;;;;;4997429;28;20180;-74
2021/01/21 12:04:58;;;;;;;3.37;1.53;;;9.80;99.90;;;;;;4996998;28;20506;-77
2021/01/21 12:10:48;;;;;;;6.33;1.60;;;9.80;99.90;;;;;;4997008;28;20749;-72
2021/01/21 12:13:17;;;;;;;6.40;1.60;;;9.70;99.90;;;;;;4997210;28;20468;-73
2021/01/21 12:15:43;;;;;;;2.60;1.47;;;9.60;99.90;;;;;;4996919;28;20923;-73
2021/01/21 12:21:37;;;;;;;4.57;1.30;;;9.60;99.90;;;;;;4986596;28;20239;-75
2021/01/21 12:24:04;;;;;;;5.50;1.97;;;9.60;99.90;;;;;;4996593;28;20444;-73
2021/01/21 12:26:30;;;;;;;10.57;1.70;;;9.50;99.90;;;;;;4996611;28;20637;-73
2021/01/21 12:28:55;;;;;;;5.80;1.83;;;9.40;99.90;;;;;;4996691;28;20424;-72
2021/01/21 12:31:21;;;;;;;3.97;1.50;;;9.20;99.90;;;;;;4996372;28;20169;-75
2021/01/21 12:33:47;;;;;;;1.80;1.20;;;9.30;99.90;;;;;;4996515;28;20181;-75
2021/01/21 12:36:13;;;;;;;2.23;1.57;;;9.30;99.90;;;;;;4996774;28;20490;-73
2021/01/21 12:38:38;;;;;;;6.57;1.40;;;9.20;99.90;;;;;;4996740;28;20184;-73
2021/01/21 12:41:04;;;;;;;6.03;1.23;;;9.20;99.90;;;;;;4996290;28;20213;-71
2021/01/21 12:43:29;;;;;;;2.03;1.40;;;9.20;99.90;;;;;;4996238;28;20549;-75
2021/01/21 12:49:16;;;;;;;3.50;1.47;;;9.50;99.90;;;;;;4996325;28;20253;-75
2021/01/21 12:51:42;;;;;;;2.57;1.10;;;9.60;99.90;;;;;;4996506;28;20460;-77
2021/01/21 12:57:30;;;;;;;4.70;1.57;;;9.60;99.90;;;;;;4996442;28;20165;-75
2021/01/21 12:59:57;;;;;;;3.20;1.30;;;9.50;99.90;;;;;;4994835;28;21010;-79
2021/01/21 13:02:26;;;;;;;1.43;1.10;;;9.50;99.90;;;;;;4996278;28;20439;-79
2021/01/21 13:04:52;;;;;;;2.03;1.20;;;9.50;99.90;;;;;;4996151;28;20823;-76
2021/01/21 13:07:17;;;;;;;3.80;1.60;;;9.50;99.90;;;;;;4996692;28;20436;-74
2021/01/21 13:09:43;;;;;;;2.90;1.30;;;9.40;99.90;;;;;;4996158;28;20816;-78
2021/01/21 13:12:08;;;;;;;5.10;1.23;;;9.50;99.90;;;;;;4995751;28;20659;-78
2021/01/21 13:14:34;;;;;;;2.03;1.03;;;9.60;99.90;;;;;;4995961;28;20227;-78
2021/01/21 13:16:59;;;;;;;2.33;1.40;;;9.60;99.90;;;;;;4996008;28;20236;-78
2021/01/21 13:19:25;;;;;;;1.40;1.20;;;9.50;99.90;;;;;;4995537;28;20184;-78
2021/01/21 13:21:50;;;;;;;2.60;1.43;;;9.60;99.90;;;;;;4995498;28;20253;-77
2021/01/21 13:24:16;;;;;;;9.27;1.63;;;9.70;99.90;;;;;;4995772;28;20227;-76
2021/01/21 13:30:05;;;;;;;5.90;1.63;;;9.90;99.90;;;;;;4999122;28;20239;-75
2021/01/21 13:35:52;;;;;;;4.00;1.57;;;9.90;99.90;;;;;;4995713;28;20411;-74
2021/01/21 13:38:17;;;;;;;3.60;1.10;;;9.70;99.90;;;;;;4995671;28;20511;-73
2021/01/21 13:40:43;;;;;;;2.30;2.10;;;9.70;99.90;;;;;;4995490;28;20204;-77
2021/01/21 13:43:08;;;;;;;3.73;1.13;;;9.60;99.90;;;;;;4994094;28;20177;-75
2021/01/21 13:48:56;;;;;;;2.70;1.50;;;9.70;99.90;;;;;;4995184;28;20212;-73
2021/01/21 13:54:43;;;;;;;4.03;1.30;;;9.80;99.90;;;;;;4993766;28;20451;-71
2021/01/21 13:57:08;;;;;;;3.80;1.20;;;9.80;99.90;;;;;;4995277;28;20420;-73
2021/01/21 13:59:35;;;;;;;1.87;1.20;;;9.70;99.90;;;;;;4995093;28;20183;-74
2021/01/21 14:02:01;;;;;;;4.10;1.37;;;9.80;99.90;;;;;;4994808;28;20185;-74
2021/01/21 14:04:26;;;;;;;2.80;1.10;;;9.90;99.90;;;;;;4995132;28;20464;-72
2021/01/21 14:06:52;;;;;;;3.63;1.40;;;10.10;99.90;;;;;;4994124;28;20173;-74
2021/01/21 14:09:17;;;;;;;7.40;1.43;;;10.00;99.90;;;;;;4994992;28;20684;-73
2021/01/21 14:11:44;;;;;;;3.27;1.10;;;10.10;99.90;;;;;;4994964;28;20269;-75
2021/01/21 14:14:09;;;;;;;3.80;1.87;;;10.10;99.90;;;;;;4994929;28;20247;-75
2021/01/21 14:16:35;;;;;;;1.87;0.90;;;10.10;99.90;;;;;;4994845;28;20424;-73
2021/01/21 14:19:00;;;;;;;3.17;1.20;;;9.90;99.90;;;;;;4994531;28;20177;-72
2021/01/21 14:21:26;;;;;;;1.43;1.00;;;10.10;99.90;;;;;;4994427;28;20260;-72
2021/01/21 14:23:51;;;;;;;3.33;1.37;;;10.10;99.90;;;;;;4994370;28;20628;-72
2021/01/21 14:26:17;;;;;;;5.47;1.43;;;9.90;99.90;;;;;;4994729;28;20204;-72
2021/01/21 14:28:43;;;;;;;3.43;1.30;;;9.90;99.90;;;;;;4994502;28;20613;-72
2021/01/21 14:31:08;;;;;;;3.27;1.37;;;9.90;99.90;;;;;;4994729;28;20268;-72
2021/01/21 14:33:34;;;;;;;3.90;1.30;;;10.00;99.90;;;;;;4994299;28;20296;-71
2021/01/21 14:36:00;;;;;;;4.03;1.57;;;9.90;99.90;;;;;;4994250;28;20185;-72
2021/01/21 14:41:47;;;;;;;2.50;1.00;;;9.90;99.90;;;;;;4994208;28;20215;-71
2021/01/21 14:44:12;;;;;;;2.70;1.17;;;10.00;99.90;;;;;;4994188;28;20424;-72
2021/01/21 14:46:38;;;;;;;4.33;1.23;;;9.90;99.90;;;;;;4994668;28;20647;-72
2021/01/21 14:49:04;;;;;;;3.00;1.37;;;9.80;99.90;;;;;;4994413;28;20219;-71
2021/01/21 14:51:29;;;;;;;2.20;1.10;;;9.80;99.90;;;;;;4994338;28;20436;-72
2021/01/21 14:53:55;;;;;;;1.60;0.97;;;9.90;99.90;;;;;;4994317;28;20203;-72
2021/01/21 14:56:20;;;;;;;2.13;1.30;;;9.90;99.90;;;;;;4994219;28;20628;-70
2021/01/21 14:58:46;;;;;;;5.00;0.90;;;9.80;99.90;;;;;;4994176;28;20195;-70
2021/01/21 15:01:11;;;;;;;2.90;1.63;;;9.90;99.90;;;;;;4994210;28;20205;-70
2021/01/21 15:03:37;;;;;;;4.33;1.00;;;10.00;99.90;;;;;;4994350;28;20551;-70
2021/01/21 15:06:03;;;;;;;1.73;1.20;;;10.00;99.90;;;;;;4994141;28;20177;-71
2021/01/21 15:08:28;;;;;;;5.47;1.47;;;10.00;99.90;;;;;;4993770;28;20180;-71
2021/01/21 15:10:57;;;;;;;4.20;1.50;;;10.00;99.90;;;;;;4993857;28;20432;-70
2021/01/21 15:13:22;;;;;;;4.30;1.40;;;9.90;99.90;;;;;;4994189;28;20192;-71
2021/01/21 15:19:10;;;;;;;2.80;1.60;;;9.90;99.90;;;;;;4996839;28;20216;-70
2021/01/21 15:21:35;;;;;;;4.40;1.30;;;9.80;99.90;;;;;;4997695;28;20480;-71
2021/01/21 15:24:01;;;;;;;1.90;1.77;;;9.80;99.90;;;;;;4997955;28;20183;-71
2021/01/21 15:26:26;;;;;;;8.03;1.13;;;9.60;99.90;;;;;;4998095;28;20180;-71
2021/01/21 15:28:52;;;;;;;4.40;1.30;;;9.50;99.90;;;;;;4997961;28;20196;-71